Time;durP1;ratioP1;P1;durP2;ratioP2;P2;SDS_P1;SDS_P2;PMS_P1;PMS_P2;Temp;Humidity;BMP_temperature;BMP_pressure;BME280_temperature;BME280_humidity;BME280_pressure;Samples;Min_cycle;Max_cycle;Signal;HPM_P1;HPM_P2
2021/12/28 00:01:08;;;;;;;46.85;23.60;;;;;;;-8.09;72.78;101567.61;1783511;80;21405;-78
2021/12/28 00:03:35;;;;;;;53.87;24.02;;;;;;;-8.05;72.76;101569.44;1783556;80;20944;-81
2021/12/28 00:06:02;;;;;;;45.33;24.10;;;;;;;-8.03;72.62;101557.22;1784205;80;21504;-80
2021/12/28 00:08:30;;;;;;;53.78;27.55;;;;;;;-8.02;72.57;101553.02;1783447;80;21378;-78
2021/12/28 00:10:56;;;;;;;50.80;24.65;;;;;;;-8.01;72.73;101552.18;1779573;80;21099;-79
2021/12/28 00:13:25;;;;;;;51.40;27.35;;;;;;;-7.93;72.91;101554.14;1775245;80;20928;-81
2021/12/28 00:18:21;;;;;;;56.18;25.62;;;;;;;-7.85;73.01;101562.00;1775170;80;21382;-80
2021/12/28 00:20:52;;;;;;;57.23;29.80;;;;;;;-7.75;72.77;101556.80;1775668;80;20889;-80
2021/12/28 00:23:25;;;;;;;50.88;28.77;;;;;;;-7.70;72.77;101557.78;1775243;80;21140;-77
2021/12/28 00:25:53;;;;;;;51.92;24.90;;;;;;;-7.61;72.90;101546.59;1775519;80;21481;-79
2021/12/28 00:28:21;;;;;;;43.98;25.45;;;;;;;-7.48;72.85;101536.36;1775141;80;20881;-80
2021/12/28 00:30:48;;;;;;;54.80;26.23;;;;;;;-7.42;72.43;101536.53;1775026;80;20936;-80
2021/12/28 00:33:16;;;;;;;41.18;22.27;;;;;;;-7.40;72.31;101530.19;1775277;80;21453;-79
2021/12/28 00:35:44;;;;;;;48.90;24.72;;;;;;;-7.38;72.37;101523.45;1775091;80;21193;-80
2021/12/28 00:38:15;;;;;;;42.98;22.67;;;;;;;-7.40;72.15;101524.70;1775262;80;20853;-81
2021/12/28 00:40:42;;;;;;;39.40;21.90;;;;;;;-7.43;72.18;101525.88;1775403;80;21477;-80
2021/12/28 00:43:09;;;;;;;41.88;23.20;;;;;;;-7.44;72.24;101526.71;1775036;80;21002;-78
2021/12/28 00:45:36;;;;;;;42.83;22.15;;;;;;;-7.45;72.33;101524.11;1775207;80;21004;-79
2021/12/28 00:48:04;;;;;;;46.23;21.87;;;;;;;-7.47;72.45;101517.69;1775076;80;21225;-79
2021/12/28 00:50:31;;;;;;;38.83;20.88;;;;;;;-7.51;72.52;101515.91;1775381;80;21400;-79
2021/12/28 00:52:58;;;;;;;39.00;18.87;;;;;;;-7.50;72.71;101513.38;1775162;80;20971;-80
2021/12/28 00:55:25;;;;;;;38.02;20.32;;;;;;;-7.46;72.70;101507.11;1775222;80;20983;-79
2021/12/28 00:57:52;;;;;;;36.35;21.52;;;;;;;-7.43;72.89;101504.22;1775403;80;21006;-80
2021/12/28 01:00:22;;;;;;;32.55;17.23;;;;;;;-7.38;72.76;101500.53;1775415;80;21832;-79
2021/12/28 01:02:49;;;;;;;28.45;18.25;;;;;;;-7.35;72.68;101493.84;1775083;80;20888;-79
2021/12/28 01:05:16;;;;;;;32.42;17.82;;;;;;;-7.37;72.68;101490.80;1775460;80;21451;-81
2021/12/28 01:07:44;;;;;;;31.25;17.40;;;;;;;-7.35;72.66;101484.07;1775206;80;21588;-80
2021/12/28 01:10:14;;;;;;;32.67;16.87;;;;;;;-7.39;72.47;101480.56;1775418;80;21426;-82
2021/12/28 01:12:42;;;;;;;30.97;18.73;;;;;;;-7.43;72.76;101478.75;1775156;80;21156;-81
2021/12/28 01:15:09;;;;;;;31.70;18.62;;;;;;;-7.50;72.85;101468.80;1775095;80;20873;-82
2021/12/28 01:17:38;;;;;;;35.35;19.10;;;;;;;-7.47;73.04;101469.71;1776138;80;20931;-80
2021/12/28 01:20:07;;;;;;;28.73;15.98;;;;;;;-7.47;72.99;101460.37;1776653;80;20932;-79
2021/12/28 01:22:34;;;;;;;26.97;15.88;;;;;;;-7.45;72.89;101456.19;1775347;80;20924;-80
2021/12/28 01:26:30;;;;;;;32.23;16.15;;;;;;;-7.40;72.88;101465.23;1797795;79;22343;-80
2021/12/28 01:28:59;;;;;;;25.48;15.85;;;;;;;-7.45;72.92;101472.75;1758380;80;21025;-81
2021/12/28 01:31:26;;;;;;;30.52;15.83;;;;;;;-7.45;72.83;101471.47;1758286;80;21772;-79
2021/12/28 01:33:54;;;;;;;30.43;16.55;;;;;;;-7.46;73.00;101467.63;1758282;80;20912;-81
2021/12/28 01:36:23;;;;;;;27.70;16.00;;;;;;;-7.46;73.06;101479.95;1758207;80;20889;-81
2021/12/28 01:38:51;;;;;;;27.77;15.65;;;;;;;-7.45;73.08;101474.02;1758277;80;20947;-83
2021/12/28 01:41:18;;;;;;;30.60;16.70;;;;;;;-7.46;73.20;101465.09;1758280;80;20971;-82
2021/12/28 01:43:45;;;;;;;30.77;17.32;;;;;;;-7.45;73.35;101473.16;1758531;81;21117;-80
2021/12/28 01:46:12;;;;;;;31.37;16.35;;;;;;;-7.44;73.41;101470.67;1758180;81;20857;-82
2021/12/28 01:48:42;;;;;;;30.15;16.30;;;;;;;-7.40;73.46;101476.69;1758269;81;20948;-81
2021/12/28 01:51:13;;;;;;;26.10;15.25;;;;;;;-7.40;73.48;101466.50;1758281;80;20937;-80
2021/12/28 01:53:41;;;;;;;26.45;14.07;;;;;;;-7.40;73.63;101457.20;1758328;80;21010;-79
2021/12/28 01:56:13;;;;;;;25.45;15.13;;;;;;;-7.37;73.76;101469.15;1758333;80;21118;-78
2021/12/28 01:58:42;;;;;;;22.82;12.95;;;;;;;-7.37;73.72;101462.78;1758270;81;26431;-79
2021/12/28 02:01:09;;;;;;;29.15;16.42;;;;;;;-7.34;73.85;101469.22;1758109;80;20896;-78
2021/12/28 02:03:38;;;;;;;29.00;13.98;;;;;;;-7.31;73.80;101478.23;1739281;81;20877;-81
2021/12/28 02:06:05;;;;;;;24.02;14.93;;;;;;;-7.27;73.87;101471.52;1758222;80;20928;-79
2021/12/28 02:08:32;;;;;;;30.25;14.40;;;;;;;-7.24;73.76;101483.09;1758203;80;21125;-81
2021/12/28 02:10:59;;;;;;;21.93;13.83;;;;;;;-7.21;73.80;101478.06;1758300;80;21010;-80
2021/12/28 02:13:27;;;;;;;26.25;14.43;;;;;;;-7.19;73.75;101477.69;1758211;80;20962;-81
2021/12/28 02:15:54;;;;;;;36.17;16.82;;;;;;;-7.19;73.74;101470.05;1758160;80;20905;-82
2021/12/28 02:18:22;;;;;;;24.92;14.55;;;;;;;-7.18;73.68;101472.64;1758416;80;21405;-81
2021/12/28 02:20:48;;;;;;;27.25;13.80;;;;;;;-7.15;73.74;101478.23;1758161;80;21143;-81
2021/12/28 02:23:15;;;;;;;35.45;16.73;;;;;;;-7.15;73.77;101473.98;1758026;81;20982;-81
2021/12/28 02:25:44;;;;;;;38.08;17.67;;;;;;;-7.14;73.81;101473.15;1750659;80;20865;-78
2021/12/28 02:28:13;;;;;;;34.92;18.37;;;;;;;-7.12;73.87;101466.41;1745164;81;20893;-80
2021/12/28 02:30:43;;;;;;;30.43;16.73;;;;;;;-7.07;74.02;101472.05;1745294;81;20900;-80
2021/12/28 02:33:10;;;;;;;31.60;16.37;;;;;;;-7.04;73.89;101478.52;1745227;81;21144;-81
2021/12/28 02:35:37;;;;;;;30.02;16.00;;;;;;;-7.02;73.92;101471.77;1745133;81;21004;-83
2021/12/28 02:38:06;;;;;;;26.50;15.95;;;;;;;-6.99;73.87;101465.47;1744620;80;20966;-81
2021/12/28 02:40:33;;;;;;;28.15;15.60;;;;;;;-6.93;73.99;101466.48;1744607;81;20905;-80
2021/12/28 02:43:00;;;;;;;26.27;15.40;;;;;;;-6.88;73.85;101467.45;1744606;81;20937;-80
2021/12/28 02:45:34;;;;;;;33.40;18.27;;;;;;;-6.86;73.81;101458.99;1744449;81;21150;-80
2021/12/28 02:48:01;;;;;;;30.88;18.20;;;;;;;-6.81;74.03;101464.64;1744863;81;20917;-82
2021/12/28 02:50:35;;;;;;;31.75;14.68;;;;;;;-6.73;73.81;101457.19;1744785;81;21541;-82
2021/12/28 02:53:02;;;;;;;25.80;14.60;;;;;;;-6.69;73.63;101471.75;1744699;81;20920;-82
2021/12/28 02:55:31;;;;;;;26.87;12.80;;;;;;;-6.70;73.62;101467.03;1744718;82;20886;-81
2021/12/28 02:58:02;;;;;;;24.05;13.00;;;;;;;-6.68;73.61;101463.25;1744820;81;21414;-81
2021/12/28 03:00:40;;;;;;;21.70;12.33;;;;;;;-6.66;73.74;101467.98;1744601;80;20933;-83
2021/12/28 03:03:13;;;;;;;18.60;12.40;;;;;;;-6.61;73.88;101461.72;1744514;81;21077;-80
2021/12/28 03:05:43;;;;;;;21.68;11.65;;;;;;;-6.52;73.70;101464.48;1744736;81;21469;-80
2021/12/28 03:08:10;;;;;;;15.72;10.45;;;;;;;-6.52;73.70;101466.61;1745045;81;20980;-80
2021/12/28 03:10:38;;;;;;;22.13;13.28;;;;;;;-6.46;73.83;101473.56;1744708;81;20956;-82
2021/12/28 03:13:05;;;;;;;20.15;11.60;;;;;;;-6.41;73.99;101475.80;1744930;81;20936;-82
2021/12/28 03:15:32;;;;;;;21.12;13.03;;;;;;;-6.37;73.89;101460.16;1744635;81;20929;-81
2021/12/28 03:18:01;;;;;;;17.23;10.78;;;;;;;-6.38;74.10;101452.92;1744642;81;20991;-84
2021/12/28 03:20:28;;;;;;;24.27;12.90;;;;;;;-6.33;74.44;101454.30;1744651;81;20957;-81
2021/12/28 03:22:55;;;;;;;20.50;12.95;;;;;;;-6.30;74.40;101451.80;1744615;81;21967;-80
2021/12/28 03:25:22;;;;;;;26.17;13.40;;;;;;;-6.29;74.51;101445.47;1744527;80;20877;-81
2021/12/28 03:27:49;;;;;;;23.62;12.20;;;;;;;-6.28;74.73;101443.77;1744511;81;21481;-81
2021/12/28 03:30:17;;;;;;;16.93;11.70;;;;;;;-6.24;74.85;101435.78;1744515;81;20936;-82
2021/12/28 03:32:44;;;;;;;23.38;12.90;;;;;;;-6.25;74.85;101428.51;1744506;81;20983;-82
2021/12/28 03:35:13;;;;;;;19.92;12.63;;;;;;;-6.26;75.01;101421.70;1744720;81;21136;-82
2021/12/28 03:37:41;;;;;;;25.17;14.15;;;;;;;-6.24;75.13;101426.84;1744756;81;21398;-82
2021/12/28 03:40:11;;;;;;;19.10;12.60;;;;;;;-6.24;75.25;101415.36;1744898;81;20936;-81
2021/12/28 03:42:38;;;;;;;21.48;13.88;;;;;;;-6.24;75.33;101413.66;1744749;81;20905;-81
2021/12/28 03:45:06;;;;;;;20.25;13.62;;;;;;;-6.25;75.44;101411.92;1744711;81;21387;-80
2021/12/28 03:47:33;;;;;;;26.02;13.20;;;;;;;-6.24;75.59;101413.66;1744775;81;21503;-84
2021/12/28 03:50:00;;;;;;;23.40;15.10;;;;;;;-6.22;75.80;101401.80;1744592;80;20948;-81
2021/12/28 03:52:27;;;;;;;17.85;11.43;;;;;;;-6.17;75.90;101400.61;1744635;81;21047;-81
2021/12/28 03:54:55;;;;;;;21.97;14.38;;;;;;;-6.09;76.09;101403.77;1744610;81;21019;-81
2021/12/28 03:57:22;;;;;;;24.35;14.33;;;;;;;-6.07;75.85;101405.95;1744862;81;21380;-81
2021/12/28 03:59:50;;;;;;;21.60;13.18;;;;;;;-6.03;75.85;101403.45;1743473;81;21470;-81
2021/12/28 04:02:17;;;;;;;23.47;13.48;;;;;;;-6.03;75.74;101413.23;1744593;80;20999;-81
2021/12/28 04:04:46;;;;;;;23.42;14.15;;;;;;;-6.07;75.71;101403.78;1744695;81;20920;-82
2021/12/28 04:07:18;;;;;;;23.55;14.55;;;;;;;-6.11;75.74;101401.60;1744942;81;21391;-82
2021/12/28 04:12:18;;;;;;;25.82;14.70;;;;;;;-6.05;76.10;101404.29;1745012;81;21120;-82
2021/12/28 04:14:45;;;;;;;28.12;14.07;;;;;;;-6.01;75.99;101387.75;1744696;81;20932;-80
2021/12/28 04:17:12;;;;;;;19.45;13.15;;;;;;;-5.98;75.92;101389.07;1746225;81;21351;-80
2021/12/28 04:19:40;;;;;;;25.57;15.48;;;;;;;-6.00;75.80;101381.80;1745451;81;20937;-81
2021/12/28 04:22:07;;;;;;;27.00;16.17;;;;;;;-6.04;75.88;101363.02;1744603;81;21019;-80
2021/12/28 04:24:36;;;;;;;27.62;13.62;;;;;;;-6.03;76.29;101375.36;1744432;81;21181;-82
2021/12/28 04:27:05;;;;;;;18.82;12.55;;;;;;;-6.00;76.09;101367.75;1744137;81;20928;-81
2021/12/28 04:29:32;;;;;;;23.75;14.98;;;;;;;-6.00;76.14;101372.47;1744777;81;20900;-82
2021/12/28 04:31:59;;;;;;;23.75;13.28;;;;;;;-6.01;76.03;101368.59;1744696;82;20995;-83
2021/12/28 04:34:26;;;;;;;22.22;12.43;;;;;;;-6.01;76.25;101369.88;1745252;82;20924;-81
2021/12/28 04:36:53;;;;;;;23.67;12.95;;;;;;;-6.01;76.17;101356.69;1744707;81;21137;-83
2021/12/28 04:39:22;;;;;;;16.00;10.38;;;;;;;-6.03;76.09;101354.52;1744746;81;21463;-81
2021/12/28 04:41:49;;;;;;;22.40;11.85;;;;;;;-6.08;76.17;101353.57;1744966;81;21581;-83
2021/12/28 04:44:22;;;;;;;20.65;11.68;;;;;;;-6.14;76.20;101352.16;1744390;81;21007;-82
2021/12/28 04:46:45;;;;;;;18.57;11.38;;;;;;;-6.20;76.32;101349.09;1746054;81;20873;-82
2021/12/28 04:49:12;;;;;;;18.30;11.70;;;;;;;-6.21;76.59;101351.60;1745202;80;21129;-81
2021/12/28 04:51:40;;;;;;;19.50;10.88;;;;;;;-6.23;76.64;101344.33;1744926;81;20885;-81
2021/12/28 04:54:11;;;;;;;19.35;13.15;;;;;;;-6.21;76.96;101342.67;1744584;82;20909;-83
2021/12/28 04:56:35;;;;;;;18.30;12.25;;;;;;;-6.20;76.77;101340.16;1744714;81;21359;-84
2021/12/28 04:59:02;;;;;;;21.25;12.10;;;;;;;-6.23;76.87;101327.31;1744743;81;20908;-84
2021/12/28 05:01:29;;;;;;;18.55;11.50;;;;;;;-6.21;77.05;101325.66;1745091;82;21101;-83
2021/12/28 05:03:56;;;;;;;16.67;10.85;;;;;;;-6.21;77.00;101320.98;1745011;81;21017;-82
2021/12/28 05:06:25;;;;;;;17.85;11.65;;;;;;;-6.21;76.88;101323.11;1744543;81;20936;-82
2021/12/28 05:08:52;;;;;;;19.65;11.18;;;;;;;-6.23;77.03;101312.00;1744760;82;20873;-82
2021/12/28 05:11:19;;;;;;;26.02;14.90;;;;;;;-6.23;76.96;101329.02;1745047;81;21461;-83
2021/12/28 05:13:46;;;;;;;23.52;14.45;;;;;;;-6.29;76.96;101314.03;1745097;81;21103;-82
2021/12/28 05:16:15;;;;;;;22.62;14.15;;;;;;;-6.29;77.20;101310.20;1745086;81;21035;-82
2021/12/28 05:18:41;;;;;;;27.05;14.78;;;;;;;-6.26;77.17;101311.53;1745559;81;20929;-82
2021/12/28 05:21:09;;;;;;;22.67;13.35;;;;;;;-6.26;77.03;101314.08;1745571;81;20944;-83
2021/12/28 05:23:36;;;;;;;21.37;13.18;;;;;;;-6.29;76.95;101311.48;1746159;81;20889;-81
2021/12/28 05:26:03;;;;;;;25.25;12.50;;;;;;;-6.34;77.12;101299.02;1749485;80;21125;-83
2021/12/28 05:28:30;;;;;;;23.83;12.78;;;;;;;-6.34;77.08;101307.10;1759353;80;21366;-82
2021/12/28 05:30:57;;;;;;;22.73;13.68;;;;;;;-6.36;77.18;101296.85;1759099;81;20917;-83
2021/12/28 05:33:25;;;;;;;23.00;14.10;;;;;;;-6.38;77.26;101297.66;1759043;81;20927;-82
2021/12/28 05:35:55;;;;;;;21.42;12.80;;;;;;;-6.35;77.52;101299.87;1759180;81;20912;-84
2021/12/28 05:38:20;;;;;;;22.60;13.62;;;;;;;-6.31;77.50;101301.66;1758076;81;21156;-81
2021/12/28 05:40:48;;;;;;;24.05;14.73;;;;;;;-6.28;77.43;101292.77;1758197;81;21069;-83
2021/12/28 05:43:15;;;;;;;21.80;13.22;;;;;;;-6.23;77.34;101290.31;1758201;81;20853;-81
2021/12/28 05:45:44;;;;;;;18.82;12.00;;;;;;;-6.21;77.16;101286.09;1758038;81;20940;-84
2021/12/28 05:48:11;;;;;;;22.98;13.22;;;;;;;-6.22;77.04;101285.67;1741460;81;20982;-84
2021/12/28 05:50:38;;;;;;;23.75;12.50;;;;;;;-6.21;77.02;101280.14;1758179;80;21927;-83
2021/12/28 05:53:05;;;;;;;19.70;12.70;;;;;;;-6.21;76.92;101283.55;1758382;80;20888;-85
2021/12/28 05:55:32;;;;;;;25.72;12.90;;;;;;;-6.21;76.84;101281.41;1758273;81;20967;-85
2021/12/28 05:57:59;;;;;;;20.23;13.15;;;;;;;-6.21;76.87;101286.09;1758186;81;20945;-85
2021/12/28 06:00:28;;;;;;;20.72;12.98;;;;;;;-6.18;76.91;101278.52;1757882;81;20882;-83
2021/12/28 06:02:56;;;;;;;22.87;13.88;;;;;;;-6.16;76.62;101284.48;1757932;81;21152;-82
2021/12/28 06:05:24;;;;;;;22.48;13.55;;;;;;;-6.20;76.42;101281.45;1757661;80;20888;-84
2021/12/28 06:07:51;;;;;;;25.20;15.13;;;;;;;-6.23;76.59;101284.34;1758105;81;20936;-84
2021/12/28 06:10:20;;;;;;;24.18;13.45;;;;;;;-6.24;76.63;101277.54;1757891;81;20944;-84
2021/12/28 06:12:49;;;;;;;22.73;12.13;;;;;;;-6.21;76.66;101277.16;1758627;81;21508;-83
2021/12/28 06:15:17;;;;;;;18.98;12.35;;;;;;;-6.20;76.54;101286.56;1758121;81;21162;-82
2021/12/28 06:17:43;;;;;;;22.65;12.73;;;;;;;-6.23;76.37;101273.72;1758374;81;20857;-82
2021/12/28 06:20:11;;;;;;;23.70;12.98;;;;;;;-6.27;76.46;101261.72;1758584;81;20991;-86
2021/12/28 06:22:38;;;;;;;22.35;12.85;;;;;;;-6.29;76.57;101269.38;1758590;81;20939;-85
2021/12/28 06:25:07;;;;;;;21.20;12.50;;;;;;;-6.30;76.39;101272.73;1758674;81;20845;-83
2021/12/28 06:27:34;;;;;;;24.80;13.68;;;;;;;-6.33;76.54;101266.31;1749089;81;21972;-84
2021/12/28 06:30:01;;;;;;;22.50;13.48;;;;;;;-6.31;76.62;101271.03;1745027;81;20929;-85
2021/12/28 06:32:29;;;;;;;20.17;12.40;;;;;;;-6.28;76.59;101265.98;1744964;80;20934;-85
2021/12/28 06:34:56;;;;;;;23.65;12.10;;;;;;;-6.24;76.66;101264.36;1745067;81;20951;-84
2021/12/28 06:37:23;;;;;;;32.83;13.93;;;;;;;-6.19;76.57;101256.36;1744748;81;20892;-84
2021/12/28 06:39:50;;;;;;;26.75;13.55;;;;;;;-6.17;76.40;101264.91;1747448;81;21155;-85
2021/12/28 06:42:20;;;;;;;26.20;15.32;;;;;;;-6.17;76.21;101258.95;1747898;81;21015;-84
2021/12/28 06:44:48;;;;;;;24.12;13.62;;;;;;;-6.17;76.39;101258.95;1748146;81;20912;-84
2021/12/28 06:47:15;;;;;;;23.50;13.18;;;;;;;-6.13;76.20;101242.86;1747969;81;20909;-84
2021/12/28 06:49:41;;;;;;;27.50;15.48;;;;;;;-6.13;76.21;101253.08;1748087;78;20960;-83
2021/12/28 06:52:08;;;;;;;28.25;14.47;;;;;;;-6.11;76.26;101249.72;1747944;79;21088;-85
2021/12/28 06:54:37;;;;;;;28.85;15.43;;;;;;;-6.10;76.13;101239.08;1747958;78;20991;-83
2021/12/28 06:57:09;;;;;;;30.27;16.80;;;;;;;-6.06;76.36;101233.20;1748120;78;20949;-86
2021/12/28 06:59:37;;;;;;;27.35;15.13;;;;;;;-5.99;76.31;101232.47;1747859;79;21117;-86
2021/12/28 07:02:05;;;;;;;26.87;15.08;;;;;;;-5.96;75.99;101237.62;1747660;78;20913;-83
2021/12/28 07:04:33;;;;;;;28.52;13.50;;;;;;;-5.95;76.02;101225.31;1747942;78;21104;-82
2021/12/28 07:07:00;;;;;;;25.35;12.82;;;;;;;-5.94;75.90;101205.28;1747606;78;20960;-83
2021/12/28 07:09:30;;;;;;;27.10;13.35;;;;;;;-5.92;75.77;101217.66;1747808;78;20964;-83
2021/12/28 07:11:57;;;;;;;22.95;13.62;;;;;;;-5.94;75.77;101222.33;1747533;78;20890;-84
2021/12/28 07:14:23;;;;;;;26.97;13.78;;;;;;;-5.91;75.94;101203.22;1747962;78;21011;-81
2021/12/28 07:16:50;;;;;;;30.62;16.52;;;;;;;-5.89;75.86;101210.46;1748079;78;21086;-83
2021/12/28 07:19:17;;;;;;;29.80;15.05;;;;;;;-5.87;75.86;101200.74;1747826;78;20933;-83
2021/12/28 07:21:45;;;;;;;25.68;13.05;;;;;;;-5.82;75.95;101194.43;1747927;78;20962;-83
2021/12/28 07:24:13;;;;;;;25.77;12.65;;;;;;;-5.76;75.94;101195.78;1747771;78;20956;-83
2021/12/28 07:26:40;;;;;;;27.48;15.10;;;;;;;-5.70;75.62;101187.38;1749763;78;20885;-81
2021/12/28 07:29:11;;;;;;;27.55;15.65;;;;;;;-5.68;75.74;101179.31;1760971;78;21701;-81
2021/12/28 07:31:36;;;;;;;29.72;16.02;;;;;;;-5.64;75.59;101187.47;1760140;78;20979;-82
2021/12/28 07:34:02;;;;;;;25.65;13.00;;;;;;;-5.64;75.38;101178.11;1760938;78;20962;-80
2021/12/28 07:36:29;;;;;;;28.47;14.10;;;;;;;-5.66;75.27;101184.89;1761133;78;20932;-80
2021/12/28 07:38:56;;;;;;;30.97;14.98;;;;;;;-5.71;75.34;101177.58;1760083;78;20958;-80
2021/12/28 07:41:23;;;;;;;26.42;14.93;;;;;;;-5.75;75.45;101176.23;1760273;81;22002;-82
2021/12/28 07:43:52;;;;;;;33.92;16.12;;;;;;;-5.78;75.69;101175.77;1758751;81;20924;-83
2021/12/28 07:46:18;;;;;;;37.63;16.52;;;;;;;-5.79;75.84;101176.59;1757783;81;20987;-80
2021/12/28 07:48:45;;;;;;;33.13;15.60;;;;;;;-5.78;75.99;101163.00;1759405;81;20947;-79
2021/12/28 07:51:12;;;;;;;31.00;16.67;;;;;;;-5.76;76.06;101156.62;1759005;81;20904;-81
2021/12/28 07:53:39;;;;;;;28.90;13.53;;;;;;;-5.76;76.01;101154.91;1758432;81;21750;-79
2021/12/28 07:56:06;;;;;;;25.68;14.35;;;;;;;-5.78;76.04;101168.11;1758195;81;20911;-78
2021/12/28 07:58:34;;;;;;;27.62;13.22;;;;;;;-5.81;76.39;101153.14;1758293;81;21401;-80
2021/12/28 08:01:03;;;;;;;21.40;13.43;;;;;;;-5.80;76.64;101159.95;1757772;81;20892;-79
2021/12/28 08:03:30;;;;;;;28.23;13.93;;;;;;;-5.83;76.58;101146.30;1757911;81;20971;-81
2021/12/28 08:05:57;;;;;;;22.50;12.58;;;;;;;-5.80;77.06;101140.80;1758035;81;21119;-82
2021/12/28 08:08:24;;;;;;;27.07;14.15;;;;;;;-5.74;76.95;101152.39;1757783;81;21442;-84
2021/12/28 08:10:51;;;;;;;34.98;15.63;;;;;;;-5.75;77.03;101128.55;1758200;80;20912;-82
2021/12/28 08:13:18;;;;;;;28.02;13.48;;;;;;;-5.75;77.37;101117.06;1757988;81;21449;-82
2021/12/28 08:15:45;;;;;;;29.00;14.38;;;;;;;-5.73;77.49;101106.88;1758242;80;20893;-82
2021/12/28 08:18:14;;;;;;;24.95;12.98;;;;;;;-5.67;77.75;101105.66;1758025;81;20923;-82
2021/12/28 08:20:41;;;;;;;25.32;13.38;;;;;;;-5.65;77.13;101110.38;1758594;81;20888;-84
2021/12/28 08:23:08;;;;;;;25.02;12.80;;;;;;;-5.71;77.09;101094.56;1758204;81;20939;-85
2021/12/28 08:25:34;;;;;;;26.27;12.30;;;;;;;-5.75;77.20;101095.78;1758357;81;20845;-84
2021/12/28 08:28:04;;;;;;;25.35;12.95;;;;;;;-5.83;77.40;101097.78;1749651;81;20948;-83
2021/12/28 08:30:31;;;;;;;22.67;12.47;;;;;;;-5.90;77.68;101093.84;1744679;81;21181;-84
2021/12/28 08:32:58;;;;;;;24.92;12.13;;;;;;;-5.93;78.14;101088.70;1745201;81;20972;-91
2021/12/28 08:35:25;;;;;;;32.53;13.78;;;;;;;-5.91;78.29;101092.14;1744767;80;20936;-83
2021/12/28 08:37:52;;;;;;;24.98;13.22;;;;;;;-5.90;78.48;101081.94;1745207;81;20908;-85
2021/12/28 08:40:20;;;;;;;25.68;13.68;;;;;;;-5.90;78.39;101074.70;1746996;81;20984;-83
2021/12/28 08:42:49;;;;;;;30.60;11.75;;;;;;;-5.92;78.51;101073.39;1745767;81;20925;-84
2021/12/28 08:45:16;;;;;;;26.97;13.45;;;;;;;-5.88;78.96;101070.05;1745871;81;20841;-85
2021/12/28 08:47:44;;;;;;;23.90;13.28;;;;;;;-5.81;78.81;101062.48;1744468;82;20885;-83
2021/12/28 08:50:12;;;;;;;22.60;12.25;;;;;;;-5.77;78.99;101034.45;1744505;81;20952;-84
2021/12/28 08:52:39;;;;;;;24.18;11.88;;;;;;;-5.67;78.86;101035.42;1744491;81;21449;-82
2021/12/28 08:55:06;;;;;;;21.25;12.00;;;;;;;-5.64;78.73;101022.70;1744807;81;21719;-82
2021/12/28 08:57:33;;;;;;;20.95;13.32;;;;;;;-5.60;78.80;101013.36;1744492;81;21390;-81
2021/12/28 09:00:00;;;;;;;19.42;10.88;;;;;;;-5.55;78.67;101002.38;1744535;81;21438;-83
2021/12/28 09:02:27;;;;;;;24.30;11.95;;;;;;;-5.53;78.39;100998.57;1744376;81;21734;-82
2021/12/28 09:04:54;;;;;;;22.95;10.90;;;;;;;-5.52;78.27;100992.18;1744636;81;20924;-82
2021/12/28 09:07:21;;;;;;;16.60;11.00;;;;;;;-5.55;78.28;100981.94;1744564;81;21138;-81
2021/12/28 09:09:49;;;;;;;22.25;10.78;;;;;;;-5.60;78.40;100975.05;1744486;81;20972;-82
2021/12/28 09:12:16;;;;;;;20.32;11.55;;;;;;;-5.61;78.60;100978.03;1744531;81;20849;-81
2021/12/28 09:14:45;;;;;;;21.73;12.37;;;;;;;-5.58;78.60;100975.53;1744507;81;20896;-80
2021/12/28 09:17:14;;;;;;;20.75;11.95;;;;;;;-5.55;78.41;100979.81;1744484;80;20932;-82
2021/12/28 09:19:46;;;;;;;19.87;9.80;;;;;;;-5.55;78.52;100979.37;1744166;81;21144;-83
2021/12/28 09:22:17;;;;;;;23.60;11.73;;;;;;;-5.53;78.46;100966.20;1744552;81;20896;-82
2021/12/28 09:24:45;;;;;;;14.93;9.08;;;;;;;-5.51;78.38;100960.70;1744828;81;20905;-82
2021/12/28 09:27:12;;;;;;;20.68;10.32;;;;;;;-5.48;78.04;100973.92;1744578;80;20890;-84
2021/12/28 09:29:42;;;;;;;20.50;12.07;;;;;;;-5.51;77.90;100979.86;1744740;81;20917;-84
2021/12/28 09:32:08;;;;;;;18.17;10.32;;;;;;;-5.56;77.88;100977.65;1744459;81;21174;-83
2021/12/28 09:34:35;;;;;;;19.77;10.72;;;;;;;-5.58;77.90;100970.42;1744344;81;20845;-82
2021/12/28 09:37:03;;;;;;;17.90;10.85;;;;;;;-5.63;77.82;100972.04;1744502;81;20889;-82
2021/12/28 09:39:31;;;;;;;17.85;10.45;;;;;;;-5.65;78.23;100960.94;1744383;81;20980;-82
2021/12/28 09:42:00;;;;;;;20.75;10.95;;;;;;;-5.59;78.20;100957.19;1744375;80;20972;-79
2021/12/28 09:44:29;;;;;;;19.23;10.48;;;;;;;-5.55;78.07;100958.09;1745397;81;21132;-79
2021/12/28 09:46:57;;;;;;;17.67;9.40;;;;;;;-5.55;78.00;100958.94;1745473;81;20879;-80
2021/12/28 09:49:25;;;;;;;22.17;10.95;;;;;;;-5.52;78.02;100952.58;1745347;80;20846;-80
2021/12/28 09:51:52;;;;;;;15.55;9.05;;;;;;;-5.49;77.99;100963.25;1745054;82;20972;-75
2021/12/28 09:54:25;;;;;;;16.70;8.78;;;;;;;-5.46;78.00;100970.97;1744736;81;20973;-77
2021/12/28 09:56:51;;;;;;;17.77;8.30;;;;;;;-5.43;77.76;100972.27;1735257;82;21163;-76
2021/12/28 09:59:18;;;;;;;14.63;9.10;;;;;;;-5.46;77.54;100977.35;1745365;81;21027;-77
2021/12/28 10:01:45;;;;;;;16.95;9.88;;;;;;;-5.51;77.62;100973.47;1745466;81;20921;-78
2021/12/28 10:04:12;;;;;;;19.15;9.90;;;;;;;-5.52;77.72;100960.67;1745469;80;21430;-75
2021/12/28 10:06:43;;;;;;;17.30;10.38;;;;;;;-5.53;77.84;100943.22;1745006;81;20976;-75
2021/12/28 10:09:17;;;;;;;15.38;9.25;;;;;;;-5.50;77.99;100935.57;1745201;81;21117;-74
2021/12/28 10:11:53;;;;;;;20.40;11.05;;;;;;;-5.48;77.95;100933.89;1744882;81;20913;-74
2021/12/28 10:14:25;;;;;;;15.40;7.70;;;;;;;-5.46;78.03;100910.92;1744652;81;20945;-75
2021/12/28 10:16:55;;;;;;;14.10;8.88;;;;;;;-5.48;77.95;100916.00;1744614;81;21067;-74
2021/12/28 10:19:42;;;;;;;13.35;7.50;;;;;;;-5.47;78.15;100901.52;1744601;81;20983;-76
2021/12/28 10:22:35;;;;;;;11.35;7.37;;;;;;;-5.47;78.29;100893.46;1744632;81;21144;-76
2021/12/28 10:25:12;;;;;;;10.23;6.45;;;;;;;-5.46;78.50;100901.98;1744536;81;21442;-75
2021/12/28 10:27:49;;;;;;;13.05;7.65;;;;;;;-5.46;78.36;100904.53;1747137;81;20936;-76
2021/12/28 10:30:23;;;;;;;14.65;7.87;;;;;;;-5.49;78.44;100884.92;1757810;81;21390;-75
2021/12/28 10:32:55;;;;;;;13.93;7.67;;;;;;;-5.49;78.46;100892.59;1757981;81;20983;-75
2021/12/28 10:35:28;;;;;;;18.07;9.70;;;;;;;-5.51;78.66;100908.32;1757844;80;21973;-76
2021/12/28 10:38:02;;;;;;;16.95;9.30;;;;;;;-5.51;78.69;100917.69;1757903;81;21031;-75
2021/12/28 10:40:39;;;;;;;23.07;9.50;;;;;;;-5.55;78.84;100907.84;1758060;81;20998;-76
2021/12/28 10:43:11;;;;;;;19.20;10.90;;;;;;;-5.61;78.85;100868.18;1757847;80;20857;-75
2021/12/28 10:45:45;;;;;;;17.90;10.00;;;;;;;-5.63;79.34;100838.78;1757963;81;21062;-75
2021/12/28 10:48:16;;;;;;;19.80;9.55;;;;;;;-5.59;79.42;100849.89;1757946;81;21089;-75
2021/12/28 10:51:02;;;;;;;21.12;8.48;;;;;;;-5.60;79.08;100825.59;1758010;81;20911;-75
2021/12/28 10:53:37;;;;;;;18.27;9.93;;;;;;;-5.63;79.30;100826.00;1758051;80;21477;-75
2021/12/28 10:56:02;;;;;;;13.83;7.75;;;;;;;-5.65;79.26;100821.33;1744905;80;20936;-75
2021/12/28 10:58:39;;;;;;;15.50;9.28;;;;;;;-5.67;79.06;100814.47;1757817;81;20908;-75
2021/12/28 11:01:17;;;;;;;12.90;8.50;;;;;;;-5.71;79.28;100811.48;1758249;81;21175;-74
2021/12/28 11:03:47;;;;;;;17.65;10.60;;;;;;;-5.69;79.37;100809.37;1757855;81;20919;-75
2021/12/28 11:06:21;;;;;;;14.45;8.75;;;;;;;-5.67;79.44;100800.42;1757681;81;20939;-74
2021/12/28 11:08:52;;;;;;;15.03;8.00;;;;;;;-5.67;79.66;100794.03;1753202;81;21049;-76
2021/12/28 11:11:22;;;;;;;25.23;9.33;;;;;;;-5.67;79.90;100785.09;1758122;81;21410;-75
2021/12/28 11:13:55;;;;;;;13.98;7.60;;;;;;;-5.71;80.07;100765.50;1757611;80;21128;-77
2021/12/28 11:16:26;;;;;;;14.23;7.92;;;;;;;-5.74;80.18;100759.92;1758094;81;20928;-75
2021/12/28 11:18:55;;;;;;;11.90;7.62;;;;;;;-5.76;80.37;100735.22;1757906;81;20888;-77
2021/12/28 11:21:28;;;;;;;10.95;7.17;;;;;;;-5.74;80.67;100730.98;1758111;81;20979;-75